createdAt,value
2022-09-16T00:00:06.552Z,14.88
2022-09-16T00:02:35.780Z,14.86
2022-09-16T00:05:06.152Z,14.81
2022-09-16T00:07:32.625Z,14.82
2022-09-16T00:09:59.253Z,14.79
2022-09-16T00:12:26.011Z,14.72
2022-09-16T00:14:55.433Z,14.69
2022-09-16T00:17:22.397Z,14.70
2022-09-16T00:19:50.513Z,14.68
2022-09-16T00:22:18.338Z,14.65
2022-09-16T00:24:44.910Z,14.62
2022-09-16T00:27:11.668Z,14.35
2022-09-16T00:29:38.155Z,14.54
2022-09-16T00:32:04.734Z,14.45
2022-09-16T00:34:31.167Z,14.49
2022-09-16T00:36:57.636Z,14.48
2022-09-16T00:39:24.114Z,14.47
2022-09-16T00:41:50.954Z,14.48
2022-09-16T00:44:54.859Z,14.46
2022-09-16T00:47:31.374Z,14.16
2022-09-16T00:50:04.116Z,14.47
2022-09-16T00:52:31.203Z,14.49
2022-09-16T00:54:58.652Z,14.52
2022-09-16T00:57:25.556Z,14.53
2022-09-16T00:59:55.700Z,14.52
2022-09-16T01:02:23.868Z,14.54
2022-09-16T01:05:04.780Z,14.54
2022-09-16T01:07:36.821Z,14.59
2022-09-16T01:10:03.859Z,14.60
2022-09-16T01:12:33.146Z,14.62
2022-09-16T01:15:01.657Z,14.63
2022-09-16T01:17:35.036Z,14.63
2022-09-16T01:20:33.007Z,14.60
2022-09-16T01:22:59.422Z,14.61
2022-09-16T01:25:56.339Z,14.63
2022-09-16T01:28:41.735Z,14.64
2022-09-16T01:31:22.731Z,14.33
2022-09-16T01:34:05.176Z,14.69
2022-09-16T01:36:57.659Z,14.70
2022-09-16T01:39:35.166Z,14.71
2022-09-16T01:42:23.966Z,14.71
2022-09-16T01:45:07.007Z,14.72
2022-09-16T01:47:38.142Z,14.72
2022-09-16T01:50:19.775Z,14.74
2022-09-16T01:53:13.065Z,14.71
2022-09-16T01:55:45.380Z,14.72
2022-09-16T01:58:23.749Z,14.76
2022-09-16T02:00:55.319Z,14.77
2022-09-16T02:03:27.810Z,14.76
2022-09-16T02:06:03.282Z,14.60
2022-09-16T02:08:53.563Z,14.74
2022-09-16T02:11:21.040Z,14.74
2022-09-16T02:14:05.092Z,14.70
2022-09-16T02:16:40.000Z,14.67
2022-09-16T02:19:10.832Z,14.66
2022-09-16T02:21:45.459Z,14.56
2022-09-16T02:24:16.978Z,14.62
2022-09-16T02:26:48.458Z,14.59
2022-09-16T02:29:25.503Z,14.57
2022-09-16T02:31:56.031Z,14.54
2022-09-16T02:34:34.375Z,14.53
2022-09-16T02:37:06.443Z,14.46
2022-09-16T02:39:37.545Z,14.41
2022-09-16T02:42:04.335Z,14.47
2022-09-16T02:44:31.196Z,14.46
2022-09-16T02:47:05.458Z,14.45
2022-09-16T02:49:57.857Z,14.45
2022-09-16T02:52:44.708Z,14.43
2022-09-16T02:55:31.422Z,14.37
2022-09-16T02:57:58.038Z,14.37
2022-09-16T03:00:25.808Z,14.33
2022-09-16T03:02:54.256Z,14.31
2022-09-16T03:05:20.812Z,14.27
2022-09-16T03:07:47.335Z,14.24
2022-09-16T03:10:15.065Z,14.14
2022-09-16T03:12:44.532Z,14.21
2022-09-16T03:15:35.314Z,14.12
2022-09-16T03:18:20.377Z,14.11
2022-09-16T03:20:52.711Z,14.10
2022-09-16T03:23:47.278Z,14.07
2022-09-16T03:26:46.802Z,14.02
2022-09-16T03:29:17.679Z,14.04
2022-09-16T03:32:03.237Z,14.00
2022-09-16T03:34:43.670Z,13.99
2022-09-16T03:37:13.035Z,13.96
2022-09-16T03:39:40.412Z,13.97
2022-09-16T03:42:11.120Z,13.96
2022-09-16T03:44:40.275Z,13.93
2022-09-16T03:47:08.406Z,13.93
2022-09-16T03:49:35.878Z,13.91
2022-09-16T03:52:05.459Z,13.92
2022-09-16T03:54:32.355Z,13.92
2022-09-16T03:57:00.477Z,13.93
2022-09-16T03:59:27.667Z,13.88
2022-09-16T04:01:54.307Z,13.97
2022-09-16T04:04:20.849Z,13.99
2022-09-16T04:06:47.471Z,13.99
2022-09-16T04:09:14.110Z,14.02
2022-09-16T04:11:40.683Z,14.05
2022-09-16T04:14:07.313Z,14.07
2022-09-16T04:16:36.114Z,14.08
2022-09-16T04:19:02.673Z,14.08
2022-09-16T04:21:29.443Z,14.08
2022-09-16T04:23:56.107Z,14.07
2022-09-16T04:26:22.630Z,14.08
2022-09-16T04:28:51.725Z,14.08
2022-09-16T04:31:18.436Z,14.09
2022-09-16T04:33:44.979Z,14.10
2022-09-16T04:36:13.950Z,14.11
2022-09-16T04:38:42.376Z,14.13
2022-09-16T04:41:11.497Z,14.16
2022-09-16T04:43:38.362Z,14.10
2022-09-16T04:46:05.687Z,14.18
2022-09-16T04:48:33.069Z,14.18
2022-09-16T04:51:05.333Z,14.20
2022-09-16T04:53:31.980Z,14.20
2022-09-16T04:56:10.173Z,14.22
2022-09-16T04:58:36.919Z,14.27
2022-09-16T05:01:05.501Z,14.27
2022-09-16T05:03:32.446Z,14.20
2022-09-16T05:06:10.756Z,14.31
2022-09-16T05:08:37.774Z,14.33
2022-09-16T05:11:06.598Z,14.29
2022-09-16T05:13:33.477Z,14.36
2022-09-16T05:16:09.027Z,14.37
2022-09-16T05:18:37.201Z,14.39
2022-09-16T05:21:05.804Z,14.41
2022-09-16T05:23:32.542Z,14.43
2022-09-16T05:26:19.642Z,14.46
2022-09-16T05:28:46.752Z,14.49
2022-09-16T05:31:27.941Z,14.41
2022-09-16T05:34:00.007Z,14.57
2022-09-16T05:36:29.197Z,14.57
2022-09-16T05:39:20.962Z,14.49
2022-09-16T05:41:43.043Z,14.60
2022-09-16T05:44:09.586Z,14.65
2022-09-16T05:46:36.328Z,14.67
2022-09-16T05:49:03.386Z,14.71
2022-09-16T05:51:31.029Z,14.74
2022-09-16T05:53:59.321Z,14.72
2022-09-16T05:56:27.589Z,14.76
2022-09-16T05:58:55.503Z,14.78
2022-09-16T06:01:24.392Z,14.78
2022-09-16T06:03:52.161Z,14.82
2022-09-16T06:06:28.739Z,14.86
2022-09-16T06:08:57.602Z,14.89
2022-09-16T06:11:25.526Z,14.89
2022-09-16T06:14:00.171Z,14.95
2022-09-16T06:16:28.061Z,14.97
2022-09-16T06:18:55.954Z,15.00
2022-09-16T06:21:23.262Z,15.03
2022-09-16T06:23:49.978Z,15.07
2022-09-16T06:26:19.132Z,15.11
2022-09-16T06:28:46.759Z,15.15
2022-09-16T06:31:18.292Z,15.17
2022-09-16T06:33:45.236Z,15.23
2022-09-16T06:36:14.718Z,15.28
2022-09-16T06:38:41.215Z,15.31
2022-09-16T06:41:09.945Z,15.36
2022-09-16T06:43:37.344Z,15.44
2022-09-16T06:46:10.238Z,15.43
2022-09-16T06:48:36.776Z,15.50
2022-09-16T06:51:24.051Z,15.51
2022-09-16T06:53:52.081Z,15.55
2022-09-16T06:56:20.555Z,15.59
2022-09-16T06:58:49.313Z,15.60
2022-09-16T07:01:21.438Z,15.60
2022-09-16T07:03:50.014Z,15.57
2022-09-16T07:06:18.013Z,15.62
2022-09-16T07:08:45.237Z,15.63
2022-09-16T07:11:14.959Z,15.63
2022-09-16T07:13:42.628Z,15.68
2022-09-16T07:16:13.887Z,15.70
2022-09-16T07:18:41.849Z,15.73
2022-09-16T07:21:13.913Z,15.82
2022-09-16T07:23:41.487Z,15.87
2022-09-16T07:26:13.364Z,15.87
2022-09-16T07:28:41.804Z,15.87
2022-09-16T07:31:11.112Z,15.94
2022-09-16T07:33:39.741Z,16.02
2022-09-16T07:36:07.910Z,16.17
2022-09-16T07:38:34.559Z,16.42
2022-09-16T07:41:15.539Z,16.70
2022-09-16T07:43:42.963Z,16.99
2022-09-16T07:46:11.956Z,17.19
2022-09-16T07:48:41.261Z,17.20
2022-09-16T07:51:16.388Z,17.15
2022-09-16T07:53:43.571Z,17.11
2022-09-16T07:56:16.481Z,17.11
2022-09-16T07:58:45.404Z,17.20
2022-09-16T08:01:13.250Z,17.26
2022-09-16T08:03:39.979Z,17.39
2022-09-16T08:06:09.621Z,17.50
2022-09-16T08:08:36.278Z,17.60
2022-09-16T08:11:03.877Z,17.66
2022-09-16T08:13:32.420Z,17.66
2022-09-16T08:16:05.094Z,17.55
2022-09-16T08:18:32.175Z,17.45
2022-09-16T08:20:59.507Z,17.26
2022-09-16T08:23:29.665Z,17.08
2022-09-16T08:26:00.077Z,16.93
2022-09-16T08:28:39.653Z,16.78
2022-09-16T08:31:15.004Z,16.67
2022-09-16T08:33:42.784Z,16.55
2022-09-16T08:36:21.588Z,16.42
2022-09-16T08:38:51.683Z,16.35
2022-09-16T08:41:23.793Z,16.34
2022-09-16T08:44:11.990Z,16.30
2022-09-16T08:47:00.547Z,16.27
2022-09-16T08:49:44.079Z,16.20
2022-09-16T08:52:15.876Z,16.15
2022-09-16T08:54:46.644Z,15.99
2022-09-16T08:57:21.337Z,15.85
2022-09-16T08:59:55.429Z,15.69
2022-09-16T09:05:23.632Z,14.99
2022-09-16T09:08:12.062Z,14.91
2022-09-16T09:10:47.409Z,14.86
2022-09-16T09:13:26.837Z,14.75
2022-09-16T09:16:15.403Z,14.73
2022-09-16T09:19:09.851Z,14.47
2022-09-16T09:22:01.195Z,14.28
2022-09-16T09:24:45.972Z,13.97
2022-09-16T09:27:16.540Z,13.82
2022-09-16T09:29:56.230Z,13.67
2022-09-16T09:32:55.173Z,13.72
2022-09-16T09:35:47.231Z,13.50
2022-09-16T09:38:27.380Z,13.53
2022-09-16T09:41:01.108Z,13.59
2022-09-16T09:43:41.703Z,13.56
2022-09-16T09:46:33.343Z,13.53
2022-09-16T09:49:11.748Z,13.42
2022-09-16T09:52:08.133Z,13.42
2022-09-16T09:54:36.181Z,13.45
2022-09-16T09:57:13.002Z,13.24
2022-09-16T09:59:58.575Z,13.45
2022-09-16T10:02:25.385Z,13.47
2022-09-16T10:04:52.031Z,13.32
2022-09-16T10:07:21.693Z,13.29
2022-09-16T10:10:15.013Z,13.35
2022-09-16T10:12:41.525Z,13.42
2022-09-16T10:15:23.290Z,13.41
2022-09-16T10:17:52.350Z,13.38
2022-09-16T10:20:27.494Z,13.33
2022-09-16T10:22:58.685Z,13.41
2022-09-16T10:25:26.639Z,13.33
2022-09-16T10:28:01.421Z,13.31
2022-09-16T10:30:34.176Z,13.30
2022-09-16T10:33:13.215Z,13.36
2022-09-16T10:35:42.153Z,13.47
2022-09-16T10:38:12.580Z,13.55
2022-09-16T10:40:50.571Z,13.61
2022-09-16T10:43:17.130Z,13.54
2022-09-16T10:45:47.307Z,13.47
2022-09-16T10:48:17.775Z,13.35
2022-09-16T10:51:01.242Z,13.45
2022-09-16T10:53:39.561Z,13.33
2022-09-16T10:56:18.574Z,13.30
2022-09-16T10:58:45.076Z,13.31
2022-09-16T11:01:30.612Z,13.20
2022-09-16T11:04:35.028Z,13.21
2022-09-16T11:07:19.854Z,13.24
2022-09-16T11:10:00.480Z,13.21
2022-09-16T11:13:18.042Z,13.30
2022-09-16T11:16:23.851Z,13.41
2022-09-16T11:19:14.974Z,13.45
2022-09-16T11:21:59.682Z,13.29
2022-09-16T11:24:34.174Z,13.42
2022-09-16T11:27:03.556Z,13.49
2022-09-16T11:29:46.955Z,13.56
2022-09-16T11:32:29.397Z,13.58
2022-09-16T11:35:25.098Z,13.60
2022-09-16T11:38:19.566Z,13.58
2022-09-16T11:41:04.159Z,13.44
2022-09-16T11:43:55.814Z,13.44
2022-09-16T11:46:48.711Z,13.47
2022-09-16T11:49:35.994Z,13.42
2022-09-16T11:52:22.215Z,13.45
2022-09-16T11:55:13.218Z,13.52
2022-09-16T11:57:44.083Z,13.58
2022-09-16T12:00:14.295Z,13.64
2022-09-16T12:02:53.616Z,13.68
2022-09-16T12:05:28.032Z,13.69
2022-09-16T12:08:09.757Z,13.70
2022-09-16T12:11:00.267Z,13.80
2022-09-16T12:13:33.875Z,13.87
2022-09-16T12:16:05.369Z,13.97
2022-09-16T12:18:37.602Z,14.07
2022-09-16T12:21:08.480Z,14.15
2022-09-16T12:23:41.356Z,14.14
2022-09-16T12:26:21.756Z,14.18
2022-09-16T12:29:02.331Z,14.18
2022-09-16T12:31:53.201Z,14.14
2022-09-16T12:34:28.412Z,14.12
2022-09-16T12:37:11.759Z,14.10
2022-09-16T12:39:38.482Z,14.30
2022-09-16T12:42:35.798Z,14.31
2022-09-16T12:45:26.217Z,14.45
2022-09-16T12:48:07.715Z,14.54
2022-09-16T12:50:56.116Z,14.53
2022-09-16T12:53:56.127Z,14.57
2022-09-16T12:56:28.605Z,14.62
2022-09-16T12:59:39.959Z,14.71
2022-09-16T13:02:11.980Z,14.84
2022-09-16T13:04:43.764Z,14.91
2022-09-16T13:07:22.967Z,14.97
2022-09-16T13:09:59.629Z,15.11
2022-09-16T13:12:45.019Z,15.34
2022-09-16T13:15:45.040Z,15.53
2022-09-16T13:18:14.258Z,15.75
2022-09-16T13:20:47.311Z,15.87
2022-09-16T13:23:27.950Z,15.85
2022-09-16T13:26:00.487Z,15.86
2022-09-16T13:28:33.370Z,15.85
2022-09-16T13:31:15.351Z,15.80
2022-09-16T13:33:44.509Z,15.73
2022-09-16T13:36:34.565Z,15.68
2022-09-16T13:39:02.522Z,15.62
2022-09-16T13:41:37.080Z,15.54
2022-09-16T13:44:39.205Z,15.43
2022-09-16T13:47:14.712Z,15.31
2022-09-16T13:49:56.275Z,15.28
2022-09-16T13:52:31.919Z,15.22
2022-09-16T13:55:10.892Z,15.21
2022-09-16T13:57:53.505Z,15.21
2022-09-16T14:00:45.461Z,15.23
2022-09-16T14:03:27.066Z,15.28
2022-09-16T14:06:27.273Z,15.31
2022-09-16T14:09:32.880Z,15.33
2022-09-16T14:12:18.246Z,15.28
2022-09-16T14:14:48.436Z,15.26
2022-09-16T14:17:22.587Z,15.24
2022-09-16T14:19:52.558Z,15.21
2022-09-16T14:22:26.759Z,15.19
2022-09-16T14:25:05.783Z,15.08
2022-09-16T14:27:36.691Z,15.11
2022-09-16T14:30:12.764Z,15.11
2022-09-16T14:32:40.719Z,15.14
2022-09-16T14:35:15.727Z,15.16
2022-09-16T14:37:46.151Z,15.18
2022-09-16T14:40:16.657Z,15.16
2022-09-16T14:42:56.671Z,15.20
2022-09-16T14:45:23.613Z,15.24
2022-09-16T14:47:53.183Z,15.26
2022-09-16T14:50:24.937Z,15.25
2022-09-16T14:52:58.046Z,15.26
2022-09-16T14:55:31.105Z,15.26
2022-09-16T14:57:58.630Z,15.27
2022-09-16T15:00:30.724Z,15.24
2022-09-16T15:03:06.371Z,15.29
2022-09-16T15:05:38.750Z,15.29
2022-09-16T15:08:22.004Z,15.24
2022-09-16T15:10:53.282Z,15.24
2022-09-16T15:13:22.938Z,15.22
2022-09-16T15:15:53.079Z,15.24
2022-09-16T15:18:25.259Z,15.28
2022-09-16T15:20:59.610Z,15.34
2022-09-16T15:23:28.138Z,15.38
2022-09-16T15:25:58.343Z,15.44
2022-09-16T15:28:25.222Z,15.48
2022-09-16T15:30:55.334Z,15.48
2022-09-16T15:33:31.220Z,15.46
2022-09-16T15:36:01.811Z,15.43
2022-09-16T15:38:29.021Z,15.30
2022-09-16T15:41:12.024Z,15.36
2022-09-16T15:43:42.622Z,15.33
2022-09-16T15:46:20.955Z,15.27
2022-09-16T15:48:52.500Z,15.17
2022-09-16T15:51:23.758Z,15.16
2022-09-16T15:53:57.296Z,15.16
2022-09-16T15:56:35.395Z,15.14
2022-09-16T15:59:20.691Z,15.16
2022-09-16T16:01:53.658Z,15.15
2022-09-16T16:04:30.768Z,15.13
2022-09-16T16:07:02.738Z,15.11
2022-09-16T16:09:29.187Z,15.04
2022-09-16T16:12:08.018Z,14.98
2022-09-16T16:14:35.485Z,14.93
2022-09-16T16:17:14.970Z,14.92
2022-09-16T16:19:43.953Z,14.82
2022-09-16T16:22:11.375Z,14.77
2022-09-16T16:24:38.825Z,14.73
2022-09-16T16:27:05.522Z,14.71
2022-09-16T16:29:32.394Z,14.70
2022-09-16T16:32:04.417Z,14.71
2022-09-16T16:34:32.786Z,14.69
2022-09-16T16:37:00.375Z,14.71
2022-09-16T16:39:27.172Z,14.60
2022-09-16T16:41:56.561Z,14.72
2022-09-16T16:44:24.346Z,14.71
2022-09-16T16:46:52.773Z,14.70
2022-09-16T16:49:19.629Z,14.70
2022-09-16T16:51:48.798Z,14.68
2022-09-16T16:54:15.586Z,14.66
2022-09-16T16:56:42.426Z,14.63
2022-09-16T16:59:09.064Z,14.62
2022-09-16T17:01:37.688Z,14.62
2022-09-16T17:04:05.345Z,14.62
2022-09-16T17:06:33.170Z,14.65
2022-09-16T17:08:59.703Z,14.64
2022-09-16T17:11:26.759Z,14.62
2022-09-16T17:13:58.719Z,14.60
2022-09-16T17:16:26.147Z,14.60
2022-09-16T17:18:52.982Z,14.58
2022-09-16T17:21:23.198Z,14.54
2022-09-16T17:23:49.681Z,14.50
2022-09-16T17:26:16.433Z,14.46
2022-09-16T17:28:46.415Z,14.41
2022-09-16T17:31:24.841Z,14.45
2022-09-16T17:33:56.309Z,14.44
2022-09-16T17:36:24.399Z,14.42
2022-09-16T17:38:58.615Z,14.40
2022-09-16T17:41:28.465Z,14.12
2022-09-16T17:43:56.437Z,14.35
2022-09-16T17:46:27.111Z,14.32
2022-09-16T17:48:59.831Z,14.23
2022-09-16T17:51:26.393Z,14.16
2022-09-16T17:53:53.007Z,14.23
2022-09-16T17:56:19.655Z,14.26
2022-09-16T17:58:47.510Z,14.11
2022-09-16T18:01:18.838Z,14.21
2022-09-16T18:03:47.353Z,14.19
2022-09-16T18:06:17.746Z,14.18
2022-09-16T18:08:44.876Z,14.16
2022-09-16T18:11:13.018Z,14.10
2022-09-16T18:13:40.435Z,14.10
2022-09-16T18:16:12.802Z,14.09
2022-09-16T18:18:40.933Z,14.02
2022-09-16T18:21:10.353Z,14.02
2022-09-16T18:23:36.951Z,13.98
2022-09-16T18:26:08.671Z,13.93
2022-09-16T18:28:58.324Z,13.91
2022-09-16T18:31:24.205Z,13.88
2022-09-16T18:33:52.349Z,13.90
2022-09-16T18:36:19.435Z,13.88
2022-09-16T18:38:50.730Z,13.85
2022-09-16T18:41:23.386Z,13.86
2022-09-16T18:44:07.418Z,13.83
2022-09-16T18:46:36.030Z,13.78
2022-09-16T18:49:03.070Z,13.80
2022-09-16T18:51:35.496Z,13.80
2022-09-16T18:54:07.912Z,13.81
2022-09-16T18:56:36.806Z,13.80
2022-09-16T18:59:23.322Z,13.79
2022-09-16T19:01:54.552Z,13.78
2022-09-16T19:04:25.084Z,13.77
2022-09-16T19:06:54.182Z,13.74
2022-09-16T19:09:23.515Z,13.75
2022-09-16T19:11:52.747Z,13.75
2022-09-16T19:14:22.337Z,13.72
2022-09-16T19:16:48.845Z,13.68
2022-09-16T19:19:15.594Z,13.67
2022-09-16T19:21:43.198Z,13.66
2022-09-16T19:24:19.051Z,13.64
2022-09-16T19:26:47.688Z,13.64
2022-09-16T19:29:15.785Z,13.63
2022-09-16T19:31:44.497Z,13.60
2022-09-16T19:34:12.123Z,13.65
2022-09-16T19:36:39.056Z,13.64
2022-09-16T19:39:06.968Z,13.63
2022-09-16T19:41:36.226Z,13.64
2022-09-16T19:44:05.555Z,13.64
2022-09-16T19:46:37.155Z,13.63
2022-09-16T19:49:05.210Z,13.64
2022-09-16T19:51:33.056Z,13.65
2022-09-16T19:54:00.805Z,13.60
2022-09-16T19:56:30.146Z,13.61
2022-09-16T19:58:57.056Z,13.61
2022-09-16T20:01:29.321Z,13.59
2022-09-16T20:03:56.146Z,13.57
2022-09-16T20:06:26.269Z,13.55
2022-09-16T20:08:55.437Z,13.50
2022-09-16T20:11:24.194Z,13.46
2022-09-16T20:13:53.379Z,13.43
2022-09-16T20:16:22.432Z,13.41
2022-09-16T20:18:49.025Z,13.38
2022-09-16T20:21:18.031Z,13.41
2022-09-16T20:23:45.532Z,13.31
2022-09-16T20:26:14.950Z,13.33
2022-09-16T20:28:42.979Z,13.25
2022-09-16T20:31:11.978Z,13.19
2022-09-16T20:33:39.071Z,13.14
2022-09-16T20:36:11.930Z,13.12
2022-09-16T20:38:39.366Z,13.04
2022-09-16T20:41:06.774Z,13.03
2022-09-16T20:43:34.449Z,13.01
2022-09-16T20:46:05.792Z,12.97
2022-09-16T20:48:35.230Z,13.05
2022-09-16T20:51:06.746Z,13.07
2022-09-16T20:53:37.394Z,13.10
2022-09-16T20:56:07.261Z,13.12
2022-09-16T20:58:34.864Z,13.13
2022-09-16T21:01:15.926Z,13.12
2022-09-16T21:03:43.499Z,13.11
2022-09-16T21:06:12.480Z,13.07
2022-09-16T21:08:39.778Z,13.08
2022-09-16T21:11:11.159Z,13.05
2022-09-16T21:13:39.114Z,12.96
2022-09-16T21:16:05.797Z,12.99
2022-09-16T21:18:32.286Z,12.93
2022-09-16T21:21:06.590Z,12.89
2022-09-16T21:23:34.617Z,12.84
2022-09-16T21:26:15.509Z,12.78
2022-09-16T21:28:43.411Z,12.66
2022-09-16T21:31:14.986Z,12.71
2022-09-16T21:33:43.999Z,12.69
2022-09-16T21:36:12.970Z,12.72
2022-09-16T21:38:40.812Z,12.71
2022-09-16T21:41:10.958Z,12.69
2022-09-16T21:43:39.934Z,12.63
2022-09-16T21:46:11.606Z,12.58
2022-09-16T21:48:38.215Z,12.56
2022-09-16T21:51:07.939Z,12.57
2022-09-16T21:53:37.197Z,12.54
2022-09-16T21:56:05.508Z,12.54
2022-09-16T21:58:32.511Z,12.50
2022-09-16T22:01:19.500Z,12.43
2022-09-16T22:03:48.912Z,12.43
2022-09-16T22:06:18.481Z,12.44
2022-09-16T22:08:48.957Z,12.42
2022-09-16T22:11:17.484Z,12.42
2022-09-16T22:13:43.964Z,12.40
2022-09-16T22:16:16.667Z,12.42
2022-09-16T22:18:44.179Z,12.38
2022-09-16T22:21:13.626Z,12.42
2022-09-16T22:23:41.673Z,12.42
2022-09-16T22:26:13.595Z,12.42
2022-09-16T22:28:40.724Z,12.40
2022-09-16T22:31:09.752Z,12.39
2022-09-16T22:33:37.777Z,12.40
2022-09-16T22:36:10.039Z,12.33
2022-09-16T22:38:37.045Z,12.33
2022-09-16T22:41:09.198Z,12.32
2022-09-16T22:43:37.123Z,12.19
2022-09-16T22:46:10.154Z,12.21
2022-09-16T22:48:37.379Z,12.19
2022-09-16T22:51:04.429Z,12.22
2022-09-16T22:53:31.827Z,12.21
2022-09-16T22:56:00.462Z,12.20
2022-09-16T22:58:27.989Z,12.20
2022-09-16T23:01:11.809Z,12.19
2022-09-16T23:03:39.258Z,12.13
2022-09-16T23:06:08.895Z,12.11
2022-09-16T23:08:37.475Z,12.12
2022-09-16T23:11:06.463Z,12.11
2022-09-16T23:13:34.129Z,12.11
2022-09-16T23:16:03.226Z,12.07
2022-09-16T23:18:30.937Z,12.06
2022-09-16T23:21:02.208Z,12.03
2022-09-16T23:23:30.117Z,12.04
2022-09-16T23:25:56.761Z,12.04
2022-09-16T23:28:23.251Z,12.07
2022-09-16T23:30:49.828Z,12.07
2022-09-16T23:33:16.382Z,12.05
2022-09-16T23:36:02.005Z,12.03
2022-09-16T23:38:29.790Z,12.06
2022-09-16T23:40:56.301Z,12.06
2022-09-16T23:43:24.646Z,12.07
2022-09-16T23:45:51.712Z,12.05
2022-09-16T23:48:18.860Z,11.97
2022-09-16T23:50:45.449Z,11.94
2022-09-16T23:53:12.043Z,11.89
2022-09-16T23:55:42.323Z,11.87
2022-09-16T23:58:09.055Z,11.80
